Time;durP1;ratioP1;P1;durP2;ratioP2;P2;SDS_P1;SDS_P2;PMS_P1;PMS_P2;Temp;Humidity;BMP_temperature;BMP_pressure;BME280_temperature;BME280_humidity;BME280_pressure;Samples;Min_cycle;Max_cycle;Signal;HPM_P1;HPM_P2
2022/05/14 00:00:49;;;;;;;;;;;12.20;94.70;;;;;;4938552;28;19925;-79
2022/05/14 00:03:16;;;;;;;;;;;12.20;95.10;;;;;;4952751;28;19914;-79
2022/05/14 00:05:43;;;;;;;;;;;12.10;95.30;;;;;;4936691;28;19917;-79
2022/05/14 00:08:09;;;;;;;;;;;12.10;95.80;;;;;;4953779;28;19910;-80
2022/05/14 00:13:03;;;;;;;;;;;12.10;95.80;;;;;;4940252;28;20385;-79
2022/05/14 00:13:23;;;;;;;;;;;12.10;96.20;;;;;;4931786;28;19917;-79
2022/05/14 00:15:50;;;;;;;;;;;12.00;96.50;;;;;;4938745;28;19918;-86
2022/05/14 00:18:17;;;;;;;;;;;12.00;96.60;;;;;;4941862;28;19923;-86
2022/05/14 00:20:43;;;;;;;;;;;12.00;96.80;;;;;;4930149;28;20377;-87
2022/05/14 00:23:09;;;;;;;;;;;11.90;96.90;;;;;;4931959;28;20250;-86
2022/05/14 00:25:36;;;;;;;;;;;12.00;97.00;;;;;;4940675;28;19914;-85
2022/05/14 00:28:02;;;;;;;;;;;11.90;97.20;;;;;;4973034;28;19925;-86
2022/05/14 00:30:29;;;;;;;;;;;11.90;97.40;;;;;;4965083;28;19930;-87
2022/05/14 00:32:55;;;;;;;;;;;11.90;97.60;;;;;;4957001;28;19914;-86
2022/05/14 00:35:22;;;;;;;;;;;11.90;97.60;;;;;;4971116;28;19910;-86
2022/05/14 00:37:49;;;;;;;;;;;11.90;97.70;;;;;;4947055;28;19921;-85
2022/05/14 00:40:17;;;;;;;;;;;11.90;97.90;;;;;;4973024;28;19914;-85
2022/05/14 00:42:44;;;;;;;;;;;11.90;98.00;;;;;;4935136;28;19917;-86
2022/05/14 00:45:12;;;;;;;;;;;11.80;98.20;;;;;;4940551;28;20381;-86
2022/05/14 00:47:39;;;;;;;;;;;11.80;98.30;;;;;;4952541;28;19929;-86
2022/05/14 00:50:08;;;;;;;;;;;11.80;98.80;;;;;;4930053;28;19930;-84
2022/05/14 00:52:35;;;;;;;;;;;11.80;98.50;;;;;;4955834;28;19921;-85
2022/05/14 00:55:03;;;;;;;;;;;11.70;98.50;;;;;;4953229;28;19910;-86
2022/05/14 00:57:37;;;;;;;;;;;11.80;98.80;;;;;;4954473;28;19910;-86
2022/05/14 01:00:09;;;;;;;;;;;11.70;98.90;;;;;;4943692;28;19917;-86
2022/05/14 01:02:35;;;;;;;;;;;11.70;98.90;;;;;;4974430;28;19917;-87
2022/05/14 01:05:02;;;;;;;;;;;11.70;99.00;;;;;;4923258;28;20274;-87
2022/05/14 01:07:30;;;;;;;;;;;11.70;99.30;;;;;;4929019;28;19941;-87
2022/05/14 01:10:00;;;;;;;;;;;11.70;99.20;;;;;;4954687;28;19913;-87
2022/05/14 01:12:27;;;;;;;;;;;11.70;99.10;;;;;;4960678;28;20286;-86
2022/05/14 01:14:54;;;;;;;;;;;11.80;99.30;;;;;;4919518;28;19986;-86
2022/05/14 01:17:21;;;;;;;;;;;11.90;99.70;;;;;;4950517;28;19918;-86
2022/05/14 01:19:47;;;;;;;;;;;11.90;99.50;;;;;;4917370;28;19929;-86
2022/05/14 01:22:26;;;;;;;;;;;12.00;99.60;;;;;;4926365;28;19922;-85
2022/05/14 01:27:59;;;;;;;;;;;12.10;99.50;;;;;;4964794;28;19911;-79
2022/05/14 01:30:27;;;;;;;;;;;12.10;99.40;;;;;;4939721;28;19922;-79
2022/05/14 01:33:06;;;;;;;;;;;12.20;99.30;;;;;;4952429;28;19914;-79
2022/05/14 01:35:44;;;;;;;;;;;12.20;99.20;;;;;;4924571;28;19915;-78
2022/05/14 01:38:12;;;;;;;;;;;12.30;99.10;;;;;;4949268;28;19910;-79
2022/05/14 01:40:40;;;;;;;;;;;12.40;99.00;;;;;;4950509;28;20309;-79
2022/05/14 01:43:07;;;;;;;;;;;12.40;98.80;;;;;;4949618;28;20274;-79
2022/05/14 01:45:33;;;;;;;;;;;12.50;98.80;;;;;;4924297;28;19910;-79
2022/05/14 01:48:01;;;;;;;;;;;12.50;98.70;;;;;;4924032;28;19914;-80
2022/05/14 01:50:27;;;;;;;;;;;12.60;98.70;;;;;;4937161;28;19914;-80
2022/05/14 01:52:53;;;;;;;;;;;12.60;98.80;;;;;;4957417;28;20290;-79
2022/05/14 01:55:20;;;;;;;;;;;12.70;98.70;;;;;;4948945;28;19925;-79
2022/05/14 01:57:47;;;;;;;;;;;12.70;98.60;;;;;;4938605;28;19910;-79
2022/05/14 02:00:14;;;;;;;;;;;12.70;98.50;;;;;;4924741;28;19921;-79
2022/05/14 02:02:41;;;;;;;;;;;12.70;98.60;;;;;;4970606;28;19909;-79
2022/05/14 02:05:11;;;;;;;;;;;12.60;98.50;;;;;;4950447;28;19919;-80
2022/05/14 02:07:38;;;;;;;;;;;12.60;98.70;;;;;;4927305;28;19914;-79
2022/05/14 02:10:04;;;;;;;;;;;12.50;98.80;;;;;;4965887;28;19925;-79
2022/05/14 02:12:31;;;;;;;;;;;12.40;98.80;;;;;;4922427;28;20006;-79
2022/05/14 02:14:58;;;;;;;;;;;12.30;99.00;;;;;;4950862;28;20389;-79
2022/05/14 02:17:24;;;;;;;;;;;12.20;99.00;;;;;;4936795;28;19914;-78
2022/05/14 02:19:50;;;;;;;;;;;12.20;99.10;;;;;;4956530;28;19923;-79
2022/05/14 02:22:17;;;;;;;;;;;12.10;99.20;;;;;;4948997;28;19917;-79
2022/05/14 02:24:46;;;;;;;;;;;12.10;99.30;;;;;;4928859;28;19914;-79
2022/05/14 02:27:13;;;;;;;;;;;12.00;99.30;;;;;;4940604;28;19921;-78
2022/05/14 02:29:56;;;;;;;;;;;11.90;99.40;;;;;;4925259;28;19913;-79
2022/05/14 02:32:24;;;;;;;;;;;11.90;99.50;;;;;;4955812;28;19922;-78
2022/05/14 02:34:50;;;;;;;;;;;11.80;99.60;;;;;;4940978;28;20314;-78
2022/05/14 02:37:17;;;;;;;;;;;11.80;99.60;;;;;;4953257;28;19914;-79
2022/05/14 02:39:45;;;;;;;;;;;11.70;99.80;;;;;;4949642;28;19914;-79
2022/05/14 02:42:12;;;;;;;;;;;11.70;99.90;;;;;;4962284;28;19914;-78
2022/05/14 02:44:38;;;;;;;;;;;11.60;99.90;;;;;;4939622;28;20293;-79
2022/05/14 02:47:05;;;;;;;;;;;11.60;99.90;;;;;;4952138;28;19914;-78
2022/05/14 02:49:31;;;;;;;;;;;11.50;99.90;;;;;;4920922;28;19915;-79
2022/05/14 02:51:57;;;;;;;;;;;11.50;99.90;;;;;;4956030;28;19926;-79
2022/05/14 02:54:24;;;;;;;;;;;11.50;99.90;;;;;;4956562;28;19922;-79
2022/05/14 02:56:51;;;;;;;;;;;11.50;99.90;;;;;;4924705;28;19917;-79
2022/05/14 02:59:18;;;;;;;;;;;11.40;99.90;;;;;;4956803;28;19914;-78
2022/05/14 03:01:50;;;;;;;;;;;11.40;99.90;;;;;;4966027;28;20373;-79
2022/05/14 03:04:30;;;;;;;;;;;11.30;99.90;;;;;;4939204;28;19917;-79
2022/05/14 03:06:59;;;;;;;;;;;11.30;99.90;;;;;;4947679;28;20358;-78
2022/05/14 03:09:25;;;;;;;;;;;11.30;99.90;;;;;;4950219;28;19918;-79
2022/05/14 03:11:51;;;;;;;;;;;11.30;99.90;;;;;;4954465;28;20374;-79
2022/05/14 03:14:19;;;;;;;;;;;11.30;99.90;;;;;;4939138;28;19925;-78
2022/05/14 03:16:45;;;;;;;;;;;11.20;99.90;;;;;;4943215;28;19917;-79
2022/05/14 03:19:13;;;;;;;;;;;11.20;99.90;;;;;;4942894;28;19910;-79
2022/05/14 03:21:39;;;;;;;;;;;11.20;99.90;;;;;;4951745;28;19917;-79
2022/05/14 03:24:05;;;;;;;;;;;11.10;99.90;;;;;;4940597;28;19938;-78
2022/05/14 03:26:32;;;;;;;;;;;11.10;99.90;;;;;;4954122;28;19918;-78
2022/05/14 03:28:58;;;;;;;;;;;11.10;99.90;;;;;;4949127;28;19917;-79
2022/05/14 03:31:25;;;;;;;;;;;11.00;99.90;;;;;;4949798;28;19945;-79
2022/05/14 03:33:51;;;;;;;;;;;11.00;99.90;;;;;;4957206;28;20366;-79
2022/05/14 03:36:18;;;;;;;;;;;11.00;99.90;;;;;;4919867;28;19910;-79
2022/05/14 03:38:44;;;;;;;;;;;11.00;99.90;;;;;;4937346;28;19915;-79
2022/05/14 03:41:11;;;;;;;;;;;11.00;99.90;;;;;;4945446;28;20266;-78
2022/05/14 03:43:37;;;;;;;;;;;10.90;99.90;;;;;;4954269;28;19918;-78
2022/05/14 03:46:04;;;;;;;;;;;10.90;99.90;;;;;;4938447;29;20527;-79
2022/05/14 03:48:31;;;;;;;;;;;10.90;99.90;;;;;;4934002;29;19926;-79
2022/05/14 03:50:58;;;;;;;;;;;10.90;99.90;;;;;;4909937;29;19914;-79
2022/05/14 03:53:24;;;;;;;;;;;10.90;99.90;;;;;;4922660;29;19914;-79
2022/05/14 03:55:50;;;;;;;;;;;10.80;99.90;;;;;;4915823;29;19923;-79
2022/05/14 03:58:18;;;;;;;;;;;10.80;99.90;;;;;;4926204;29;19914;-79
2022/05/14 04:00:44;;;;;;;;;;;10.80;99.90;;;;;;4920347;29;19969;-79
2022/05/14 04:03:11;;;;;;;;;;;10.80;99.90;;;;;;4912581;29;20421;-79
2022/05/14 04:05:37;;;;;;;;;;;10.80;99.90;;;;;;4915120;29;19921;-78
2022/05/14 04:08:05;;;;;;;;;;;10.80;99.90;;;;;;4912797;29;19910;-80
2022/05/14 04:10:32;;;;;;;;;;;10.80;99.90;;;;;;4911049;29;20298;-78
2022/05/14 04:12:59;;;;;;;;;;;10.80;99.90;;;;;;4895343;29;19914;-78
2022/05/14 04:15:25;;;;;;;;;;;10.80;99.90;;;;;;4905016;29;19911;-78
2022/05/14 04:17:53;;;;;;;;;;;10.80;99.90;;;;;;4919489;28;19915;-78
2022/05/14 04:20:20;;;;;;;;;;;10.80;99.90;;;;;;4942856;28;20285;-79
2022/05/14 04:22:47;;;;;;;;;;;10.80;99.90;;;;;;4960541;28;19921;-79
2022/05/14 04:25:14;;;;;;;;;;;10.80;99.90;;;;;;4945992;28;19914;-79
2022/05/14 04:27:41;;;;;;;;;;;10.80;99.90;;;;;;4959469;28;19918;-79
2022/05/14 04:30:09;;;;;;;;;;;10.80;99.90;;;;;;4953741;28;19917;-79
2022/05/14 04:32:38;;;;;;;;;;;10.80;99.90;;;;;;4941884;28;20285;-79
2022/05/14 04:35:04;;;;;;;;;;;10.90;99.90;;;;;;4944759;28;20289;-79
2022/05/14 04:37:31;;;;;;;;;;;10.90;99.90;;;;;;4941883;28;19917;-79
2022/05/14 04:39:57;;;;;;;;;;;10.90;99.90;;;;;;4940287;28;20294;-79
2022/05/14 04:42:24;;;;;;;;;;;11.00;99.90;;;;;;4932004;28;19933;-79
2022/05/14 04:44:50;;;;;;;;;;;11.00;99.90;;;;;;4970159;28;19921;-79
2022/05/14 04:47:17;;;;;;;;;;;11.00;99.90;;;;;;4949823;28;19910;-79
2022/05/14 04:49:45;;;;;;;;;;;11.10;99.90;;;;;;4958899;28;19911;-79
2022/05/14 04:52:13;;;;;;;;;;;11.20;99.90;;;;;;4945300;28;20274;-79
2022/05/14 04:54:39;;;;;;;;;;;11.20;99.90;;;;;;4962990;28;19910;-79
2022/05/14 04:57:06;;;;;;;;;;;11.30;99.90;;;;;;4943015;28;19910;-79
2022/05/14 04:59:36;;;;;;;;;;;11.40;99.90;;;;;;4923121;28;19957;-78
2022/05/14 05:04:51;;;;;;;;;;;11.60;99.90;;;;;;4948750;28;19910;-80
2022/05/14 05:07:18;;;;;;;;;;;11.70;99.90;;;;;;4946724;28;19914;-79
2022/05/14 05:09:46;;;;;;;;;;;11.80;99.90;;;;;;4958824;28;19910;-80
2022/05/14 05:12:12;;;;;;;;;;;11.90;99.90;;;;;;4949771;28;19914;-80
2022/05/14 05:14:38;;;;;;;;;;;12.00;99.90;;;;;;4978732;28;19910;-79
2022/05/14 05:17:05;;;;;;;;;;;12.10;99.90;;;;;;4960098;28;19915;-79
2022/05/14 05:19:31;;;;;;;;;;;12.20;99.90;;;;;;4951113;28;19914;-79
2022/05/14 05:21:57;;;;;;;;;;;12.40;99.90;;;;;;4963183;28;19922;-79
2022/05/14 05:24:24;;;;;;;;;;;12.40;99.90;;;;;;4978515;28;19910;-79
2022/05/14 05:26:50;;;;;;;;;;;12.50;99.90;;;;;;4988504;28;19922;-83
2022/05/14 05:29:16;;;;;;;;;;;12.60;99.90;;;;;;4977827;28;19925;-82
2022/05/14 05:31:43;;;;;;;;;;;12.70;99.90;;;;;;4947121;28;19914;-83
2022/05/14 05:34:09;;;;;;;;;;;12.80;99.90;;;;;;4970313;28;19918;-81
2022/05/14 05:36:35;;;;;;;;;;;12.80;99.90;;;;;;4969320;28;19910;-81
2022/05/14 05:39:02;;;;;;;;;;;12.90;99.90;;;;;;4967514;28;19921;-81
2022/05/14 05:41:28;;;;;;;;;;;13.00;99.90;;;;;;4965667;28;19915;-81
2022/05/14 05:43:56;;;;;;;;;;;13.10;99.90;;;;;;4979567;28;20270;-81
2022/05/14 05:46:22;;;;;;;;;;;13.10;99.90;;;;;;4941786;28;19918;-81
2022/05/14 05:48:48;;;;;;;;;;;13.30;99.90;;;;;;4956659;28;20270;-82
2022/05/14 05:51:14;;;;;;;;;;;13.40;99.90;;;;;;4956523;28;19915;-84
2022/05/14 05:59:10;;;;;;;;;;;14.00;99.90;;;;;;4969561;28;19914;-82
2022/05/14 06:01:37;;;;;;;;;;;14.30;99.90;;;;;;4961931;28;19945;-84
2022/05/14 06:04:03;;;;;;;;;;;14.40;99.90;;;;;;4970817;28;19914;-81
2022/05/14 06:06:30;;;;;;;;;;;14.50;99.90;;;;;;4954361;28;19923;-82
2022/05/14 06:08:56;;;;;;;;;;;14.50;99.90;;;;;;4978447;28;19979;-82
2022/05/14 06:11:22;;;;;;;;;;;14.60;99.90;;;;;;4969538;28;19914;-82
2022/05/14 06:13:50;;;;;;;;;;;14.70;99.90;;;;;;4943749;28;20273;-80
2022/05/14 06:16:16;;;;;;;;;;;14.90;99.90;;;;;;4952930;28;19918;-80
2022/05/14 06:18:43;;;;;;;;;;;15.20;99.90;;;;;;4972367;28;19914;-80
2022/05/14 06:21:09;;;;;;;;;;;15.30;99.90;;;;;;4947845;28;19918;-80
2022/05/14 06:23:36;;;;;;;;;;;15.40;99.90;;;;;;4976106;28;19918;-82
2022/05/14 06:26:02;;;;;;;;;;;15.60;99.90;;;;;;4955702;28;19922;-83
2022/05/14 06:28:29;;;;;;;;;;;15.90;99.90;;;;;;4969943;28;19914;-82
2022/05/14 06:30:55;;;;;;;;;;;16.00;99.90;;;;;;4979234;28;19918;-82
2022/05/14 06:33:22;;;;;;;;;;;16.20;99.90;;;;;;4972561;28;19922;-82
2022/05/14 06:35:48;;;;;;;;;;;16.50;99.90;;;;;;4972760;28;19941;-82
2022/05/14 06:38:15;;;;;;;;;;;16.80;99.90;;;;;;4972359;28;20282;-82
2022/05/14 06:40:41;;;;;;;;;;;17.10;99.90;;;;;;4988671;28;19984;-83
2022/05/14 06:43:08;;;;;;;;;;;17.30;99.50;;;;;;4980291;28;19922;-83
2022/05/14 06:45:34;;;;;;;;;;;17.50;99.20;;;;;;4948632;28;20416;-82
2022/05/14 06:48:01;;;;;;;;;;;17.60;98.90;;;;;;4954083;28;19921;-84
2022/05/14 06:50:29;;;;;;;;;;;17.60;98.90;;;;;;4949051;28;19910;-85
2022/05/14 06:53:00;;;;;;;;;;;17.80;98.70;;;;;;4979818;28;19933;-87
2022/05/14 06:55:27;;;;;;;;;;;18.00;98.60;;;;;;4971091;28;19917;-84
2022/05/14 06:57:54;;;;;;;;;;;18.20;98.30;;;;;;4937957;28;19915;-82
2022/05/14 07:00:24;;;;;;;;;;;18.30;98.10;;;;;;4961866;28;19926;-82
2022/05/14 07:02:51;;;;;;;;;;;18.40;97.90;;;;;;4960196;28;19918;-81
2022/05/14 07:08:03;;;;;;;;;;;18.40;97.10;;;;;;4985083;28;19917;-81
2022/05/14 07:10:29;;;;;;;;;;;18.40;97.10;;;;;;4958353;28;19914;-82
2022/05/14 07:12:59;;;;;;;;;;;18.50;96.90;;;;;;4930795;28;20398;-82
2022/05/14 07:15:25;;;;;;;;;;;18.50;96.40;;;;;;4949299;28;19914;-82
2022/05/14 07:17:51;;;;;;;;;;;18.50;96.50;;;;;;4951301;28;19925;-82
2022/05/14 07:20:18;;;;;;;;;;;18.60;96.40;;;;;;4956257;28;19948;-82
2022/05/14 07:22:45;;;;;;;;;;;18.60;96.30;;;;;;4950786;28;20405;-81
2022/05/14 07:25:11;;;;;;;;;;;18.70;96.20;;;;;;4941182;28;19921;-81
2022/05/14 07:27:37;;;;;;;;;;;18.80;96.00;;;;;;4962651;28;19926;-83
2022/05/14 07:30:04;;;;;;;;;;;18.90;95.90;;;;;;4951516;28;20385;-83
2022/05/14 07:32:30;;;;;;;;;;;19.00;95.60;;;;;;4953519;28;20374;-82
2022/05/14 07:34:57;;;;;;;;;;;19.10;95.60;;;;;;4961543;28;20286;-82
2022/05/14 07:37:34;;;;;;;;;;;19.20;95.20;;;;;;4966986;28;20366;-80
2022/05/14 07:40:03;;;;;;;;;;;19.30;95.10;;;;;;4952872;28;20235;-79
2022/05/14 07:42:36;;;;;;;;;;;19.40;94.80;;;;;;4947578;28;19917;-80
2022/05/14 07:45:03;;;;;;;;;;;19.60;94.60;;;;;;4968264;28;19920;-80
2022/05/14 07:47:30;;;;;;;;;;;19.70;94.30;;;;;;4949218;28;19936;-82
2022/05/14 07:49:57;;;;;;;;;;;19.80;93.80;;;;;;4954240;28;19923;-79
2022/05/14 07:52:23;;;;;;;;;;;19.90;93.70;;;;;;4948188;28;19930;-80
2022/05/14 07:54:51;;;;;;;;;;;20.00;93.50;;;;;;4967138;28;19922;-80
2022/05/14 07:57:18;;;;;;;;;;;20.10;93.30;;;;;;4943016;28;19918;-80
2022/05/14 07:59:45;;;;;;;;;;;20.20;93.10;;;;;;4942546;28;19926;-80
2022/05/14 08:02:20;;;;;;;;;;;20.30;92.90;;;;;;4965136;28;19914;-80
2022/05/14 08:04:46;;;;;;;;;;;20.50;92.70;;;;;;4949026;28;20378;-79
2022/05/14 08:07:13;;;;;;;;;;;20.60;92.50;;;;;;4940452;28;19921;-80
2022/05/14 08:09:39;;;;;;;;;;;20.80;92.30;;;;;;4944047;28;19914;-80
2022/05/14 08:12:06;;;;;;;;;;;20.80;91.90;;;;;;4940300;28;20378;-80
2022/05/14 08:14:33;;;;;;;;;;;20.90;91.80;;;;;;4947050;28;20429;-81
2022/05/14 08:16:59;;;;;;;;;;;20.90;91.20;;;;;;4932985;28;19910;-80
2022/05/14 08:19:26;;;;;;;;;;;20.80;90.40;;;;;;4939070;28;19921;-80
2022/05/14 08:24:38;;;;;;;;;;;20.80;90.20;;;;;;4964516;28;19931;-80
2022/05/14 08:27:07;;;;;;;;;;;21.00;90.10;;;;;;4962680;28;19917;-79
2022/05/14 08:29:34;;;;;;;;;;;21.30;90.00;;;;;;4956088;28;20262;-79
2022/05/14 08:32:00;;;;;;;;;;;21.60;88.40;;;;;;4933683;28;19922;-79
2022/05/14 08:34:26;;;;;;;;;;;21.70;87.30;;;;;;4969840;28;19911;-79
2022/05/14 08:36:53;;;;;;;;;;;21.90;87.30;;;;;;4954607;28;19914;-79
2022/05/14 08:39:20;;;;;;;;;;;22.10;86.80;;;;;;4965797;28;19923;-79
2022/05/14 08:41:47;;;;;;;;;;;22.40;85.80;;;;;;4952864;28;20362;-80
2022/05/14 08:44:15;;;;;;;;;;;22.60;85.10;;;;;;4944684;28;20281;-79
2022/05/14 08:46:42;;;;;;;;;;;22.60;84.50;;;;;;4951946;28;19918;-80
2022/05/14 08:49:29;;;;;;;;;;;22.80;83.60;;;;;;4941991;28;19914;-80
2022/05/14 08:51:56;;;;;;;;;;;23.00;82.70;;;;;;4947076;28;19914;-80
2022/05/14 08:54:22;;;;;;;;;;;23.20;82.40;;;;;;4930928;28;19918;-80
2022/05/14 08:57:09;;;;;;;;;;;23.30;81.20;;;;;;4914595;28;19921;-80
2022/05/14 08:59:53;;;;;;;;;;;23.40;80.90;;;;;;4942485;28;20385;-80
2022/05/14 09:02:22;;;;;;;;;;;23.50;80.80;;;;;;4959700;28;19918;-81
2022/05/14 09:04:50;;;;;;;;;;;23.60;80.60;;;;;;4959317;28;19918;-80
2022/05/14 09:07:18;;;;;;;;;;;23.70;80.50;;;;;;4964015;28;19910;-80
2022/05/14 09:09:52;;;;;;;;;;;23.70;80.40;;;;;;4951853;28;19914;-80
2022/05/14 09:12:19;;;;;;;;;;;23.90;80.00;;;;;;4940164;28;19933;-81
2022/05/14 09:14:51;;;;;;;;;;;24.00;79.40;;;;;;4933456;28;19915;-80
2022/05/14 09:17:22;;;;;;;;;;;24.10;78.20;;;;;;4916453;29;19910;-80
2022/05/14 09:19:50;;;;;;;;;;;24.00;76.80;;;;;;4942020;29;19918;-81
2022/05/14 09:22:23;;;;;;;;;;;23.90;76.60;;;;;;4933581;29;19911;-80
2022/05/14 09:24:50;;;;;;;;;;;24.10;76.30;;;;;;4934641;29;19911;-80
2022/05/14 09:27:22;;;;;;;;;;;24.30;75.00;;;;;;4938323;29;19919;-79
2022/05/14 09:29:52;;;;;;;;;;;24.50;74.40;;;;;;4920101;29;19910;-79
2022/05/14 09:32:20;;;;;;;;;;;24.70;73.90;;;;;;4912727;29;19926;-83
2022/05/14 09:34:47;;;;;;;;;;;25.00;73.30;;;;;;4932382;29;19917;-84
2022/05/14 09:37:18;;;;;;;;;;;25.20;72.40;;;;;;4928323;29;19910;-81
2022/05/14 09:39:56;;;;;;;;;;;25.30;72.00;;;;;;4933871;29;19910;-82
2022/05/14 09:42:26;;;;;;;;;;;25.50;71.50;;;;;;4924225;29;19910;-80
2022/05/14 09:44:54;;;;;;;;;;;25.80;70.90;;;;;;4938716;29;19933;-81
2022/05/14 09:47:26;;;;;;;;;;;25.90;68.60;;;;;;4915362;29;19918;-82
2022/05/14 09:49:59;;;;;;;;;;;26.10;68.20;;;;;;4929637;29;20393;-81
2022/05/14 09:52:27;;;;;;;;;;;26.30;68.10;;;;;;4947153;28;19914;-80
2022/05/14 09:54:53;;;;;;;;;;;26.60;67.20;;;;;;4943068;28;19911;-82
2022/05/14 09:57:38;;;;;;;;;;;26.60;66.50;;;;;;4912507;29;19925;-81
2022/05/14 10:00:27;;;;;;;;;;;26.70;66.10;;;;;;4925698;29;19930;-86
2022/05/14 10:05:11;;;;;;;8.32;1.60;;;27.40;67.50;;;;;;5070835;27;740328;-84
2022/05/14 10:07:52;;;;;;;8.75;2.00;;;27.90;65.70;;;;;;5003270;28;966629;-85
2022/05/14 10:10:59;;;;;;;8.27;1.95;;;27.70;64.70;;;;;;5068527;28;20031;-79
2022/05/14 10:13:44;;;;;;;6.18;1.42;;;27.60;63.80;;;;;;5051628;28;20045;-82
2022/05/14 10:16:15;;;;;;;9.38;1.88;;;27.30;62.40;;;;;;5083059;28;20390;-83
2022/05/14 10:18:49;;;;;;;;;;;27.30;63.30;;;;;;5081372;28;20012;-83
2022/05/14 10:21:43;;;;;;;8.82;2.55;;;27.60;62.30;;;;;;5053581;28;19908;-83
2022/05/14 10:27:36;;;;;;;8.02;1.70;;;28.10;61.20;;;;;;5065299;28;20475;-82
2022/05/14 10:30:22;;;;;;;7.20;1.70;;;28.20;59.90;;;;;;5082469;28;20032;-81
2022/05/14 10:33:02;;;;;;;8.57;2.08;;;28.40;60.10;;;;;;5079884;28;20028;-82
2022/05/14 10:35:45;;;;;;;9.18;3.13;;;28.50;59.00;;;;;;5081952;28;20016;-82
2022/05/14 10:38:17;;;;;;;14.95;3.88;;;28.40;58.60;;;;;;5081926;28;20353;-81
2022/05/14 10:40:48;;;;;;;12.55;3.20;;;28.40;58.40;;;;;;5074589;28;20023;-83
2022/05/14 10:43:37;;;;;;;11.45;3.63;;;28.30;56.90;;;;;;5085844;28;20030;-81
2022/05/14 10:46:08;;;;;;;9.48;2.22;;;27.90;57.10;;;;;;5060936;28;20047;-81
2022/05/14 10:48:47;;;;;;;7.82;1.60;;;27.60;57.50;;;;;;5065112;28;20043;-81
2022/05/14 10:51:24;;;;;;;7.50;1.75;;;27.20;57.80;;;;;;5080454;28;20491;-80
2022/05/14 10:53:52;;;;;;;8.77;2.10;;;27.20;58.20;;;;;;5066964;28;20047;-85
2022/05/14 10:56:33;;;;;;;7.93;2.05;;;27.20;58.00;;;;;;5035865;28;20549;-83
2022/05/14 10:59:06;;;;;;;9.13;2.00;;;26.90;57.60;;;;;;5069248;28;20025;-80
2022/05/14 11:01:53;;;;;;;9.45;1.80;;;26.50;58.00;;;;;;5079403;28;20043;-83
2022/05/14 11:04:24;;;;;;;6.85;1.30;;;26.10;58.60;;;;;;5047240;28;20044;-83
2022/05/14 11:07:03;;;;;;;7.97;1.65;;;25.90;59.30;;;;;;5061378;28;20029;-83
2022/05/14 11:09:36;;;;;;;8.90;2.10;;;25.90;59.40;;;;;;5062859;28;20035;-82
2022/05/14 11:12:08;;;;;;;9.98;2.38;;;26.60;59.50;;;;;;5091528;28;20028;-82
2022/05/14 11:14:45;;;;;;;9.93;2.28;;;27.60;58.30;;;;;;5046018;28;20400;-82
2022/05/14 11:17:33;;;;;;;9.40;2.10;;;28.50;57.10;;;;;;5052561;28;20028;-80
2022/05/14 11:20:06;;;;;;;10.38;2.42;;;29.70;55.60;;;;;;5053970;28;20036;-80
2022/05/14 11:22:37;;;;;;;9.13;1.75;;;30.40;53.40;;;;;;5052803;28;20032;-79
2022/05/14 11:25:22;;;;;;;7.93;2.22;;;30.30;51.90;;;;;;5051791;28;20036;-80
2022/05/14 11:28:12;;;;;;;10.48;3.03;;;30.00;52.20;;;;;;5046705;28;20043;-80
2022/05/14 11:30:45;;;;;;;12.88;5.82;;;30.30;51.50;;;;;;5066852;28;20988;-80
2022/05/14 11:33:27;;;;;;;12.57;3.40;;;30.30;50.00;;;;;;5048039;28;20060;-80
2022/05/14 11:35:58;;;;;;;6.00;1.67;;;30.30;50.90;;;;;;5031690;28;20036;-80
2022/05/14 11:38:24;;;;;;;10.63;5.20;;;30.80;50.80;;;;;;5051970;28;20028;-79
2022/05/14 11:41:26;;;;;;;12.70;3.83;;;31.20;50.20;;;;;;5045562;28;20025;-82
2022/05/14 11:43:53;;;;;;;11.18;2.38;;;30.90;47.50;;;;;;5035579;28;20029;-83
2022/05/14 11:46:31;;;;;;;11.82;2.78;;;30.90;48.90;;;;;;5040082;28;20035;-83
2022/05/14 11:49:11;;;;;;;10.57;2.05;;;31.30;48.10;;;;;;5061558;28;20048;-83
2022/05/14 11:51:50;;;;;;;13.05;3.03;;;31.80;47.70;;;;;;5027052;28;20040;-83
2022/05/14 11:54:24;;;;;;;6.80;1.80;;;32.30;47.00;;;;;;5051310;28;20028;-83
2022/05/14 11:57:36;;;;;;;9.55;2.53;;;32.80;46.90;;;;;;5033794;28;20031;-84
2022/05/14 12:00:08;;;;;;;10.57;2.30;;;33.40;45.90;;;;;;4990363;28;20038;-84
2022/05/14 12:02:47;;;;;;;9.30;2.03;;;33.60;45.50;;;;;;5004260;28;20037;-83
2022/05/14 12:05:38;;;;;;;10.82;2.47;;;33.50;44.80;;;;;;5019550;28;20036;-83
2022/05/14 12:08:31;;;;;;;8.95;2.13;;;33.10;44.60;;;;;;5014754;28;20495;-82
2022/05/14 12:11:19;;;;;;;5.70;1.70;;;32.40;44.80;;;;;;5047796;28;20025;-83
2022/05/14 12:14:15;;;;;;;9.65;2.25;;;31.60;45.30;;;;;;5048772;28;20045;-82
2022/05/14 12:16:49;;;;;;;7.55;2.22;;;31.10;46.20;;;;;;5038856;28;20444;-82
2022/05/14 12:19:25;;;;;;;7.97;2.17;;;30.80;46.40;;;;;;5047382;28;20384;-79
2022/05/14 12:22:17;;;;;;;7.97;2.17;;;30.50;46.60;;;;;;5046494;28;20039;-79
2022/05/14 12:25:07;;;;;;;10.65;2.53;;;30.00;46.70;;;;;;5030820;28;20036;-78
2022/05/14 12:27:44;;;;;;;8.98;2.15;;;29.60;47.40;;;;;;5045080;28;382973;-79
2022/05/14 12:30:13;;;;;;;8.68;1.88;;;30.10;47.80;;;;;;5045177;28;20051;-79
2022/05/14 12:35:32;;;;;;;9.48;2.45;;;31.50;45.80;;;;;;5033921;28;20032;-79
2022/05/14 12:38:02;;;;;;;10.07;1.85;;;31.20;46.10;;;;;;5043788;28;20024;-79
2022/05/14 12:40:39;;;;;;;11.35;2.50;;;30.70;46.80;;;;;;5040340;28;20012;-79
2022/05/14 12:43:12;;;;;;;9.60;2.58;;;31.10;46.60;;;;;;5044979;28;20032;-79
2022/05/14 12:45:44;;;;;;;11.38;3.03;;;31.30;46.50;;;;;;5061139;28;20388;-79
2022/05/14 12:48:13;;;;;;;9.77;2.40;;;31.60;45.60;;;;;;5045407;28;20039;-79
2022/05/14 12:50:51;;;;;;;11.45;2.88;;;31.70;45.70;;;;;;5046374;28;20039;-80
2022/05/14 12:53:18;;;;;;;10.82;2.90;;;31.30;45.90;;;;;;5037383;28;20040;-79
2022/05/14 12:55:49;;;;;;;8.52;2.15;;;31.60;46.20;;;;;;5042520;28;20033;-79
2022/05/14 12:58:20;;;;;;;10.20;2.70;;;32.80;45.00;;;;;;5034127;28;20043;-80
2022/05/14 13:00:50;;;;;;;7.70;2.30;;;33.90;43.80;;;;;;5034105;28;20039;-80
2022/05/14 13:03:35;;;;;;;11.60;4.88;;;34.90;42.70;;;;;;5024912;28;20496;-81
2022/05/14 13:06:12;;;;;;;10.65;2.92;;;35.70;40.80;;;;;;5044201;28;20581;-81
2022/05/14 13:08:45;;;;;;;15.10;5.10;;;36.20;40.70;;;;;;5047816;28;20048;-81
2022/05/14 13:11:16;;;;;;;8.23;2.35;;;36.60;40.00;;;;;;5032009;28;20028;-80
2022/05/14 13:13:46;;;;;;;8.77;2.63;;;36.50;39.30;;;;;;5047207;28;20032;-80
2022/05/14 13:16:31;;;;;;;6.80;1.90;;;36.20;39.40;;;;;;5024789;28;20626;-80
2022/05/14 13:19:33;;;;;;;9.43;2.05;;;35.30;39.70;;;;;;5012896;28;20028;-81
2022/05/14 13:22:00;;;;;;;12.45;2.88;;;35.00;40.50;;;;;;5063404;28;20029;-80
2022/05/14 13:24:30;;;;;;;11.93;2.85;;;34.90;40.30;;;;;;5013805;28;20059;-82
2022/05/14 13:26:59;;;;;;;8.68;2.17;;;35.40;39.30;;;;;;5030003;28;20032;-81
2022/05/14 13:29:31;;;;;;;10.57;2.20;;;35.70;38.40;;;;;;5034788;28;20051;-82
2022/05/14 13:32:21;;;;;;;9.75;2.25;;;35.90;38.30;;;;;;5046501;28;20031;-82
2022/05/14 13:37:37;;;;;;;11.73;2.45;;;36.90;37.60;;;;;;5059445;28;20036;-81
2022/05/14 13:40:30;;;;;;;9.60;1.80;;;37.40;36.90;;;;;;5013482;28;20035;-80
2022/05/14 13:43:18;;;;;;;8.15;1.95;;;36.90;36.80;;;;;;5030608;28;20387;-80
2022/05/14 13:45:55;;;;;;;11.15;2.08;;;35.30;38.00;;;;;;5013316;28;20365;-80
2022/05/14 13:48:40;;;;;;;6.88;1.65;;;33.60;39.30;;;;;;5040224;28;20019;-80
2022/05/14 13:51:20;;;;;;;9.13;2.08;;;32.70;40.10;;;;;;5045831;28;20622;-81
2022/05/14 13:53:51;;;;;;;8.13;2.10;;;33.00;40.10;;;;;;5029952;28;20040;-80
2022/05/14 13:56:21;;;;;;;8.95;1.75;;;33.50;39.80;;;;;;5037650;28;20048;-81
2022/05/14 13:59:28;;;;;;;8.57;2.28;;;33.00;40.10;;;;;;5063006;28;20025;-80
2022/05/14 14:02:17;;;;;;;9.35;2.30;;;32.10;40.80;;;;;;4998833;28;20025;-81
2022/05/14 14:04:44;;;;;;;10.68;2.33;;;32.40;41.00;;;;;;5029075;28;20408;-81
2022/05/14 14:07:11;;;;;;;14.35;4.35;;;32.40;40.30;;;;;;5010391;28;20063;-81
2022/05/14 14:09:40;;;;;;;9.57;2.75;;;31.80;41.00;;;;;;5014208;28;20036;-80
2022/05/14 14:12:11;;;;;;;11.55;2.65;;;31.20;41.60;;;;;;5045357;28;20036;-81
2022/05/14 14:14:38;;;;;;;8.85;1.92;;;30.50;42.50;;;;;;5015195;28;20045;-81
2022/05/14 14:17:05;;;;;;;11.25;2.90;;;29.90;42.90;;;;;;5009767;28;20032;-81
2022/05/14 14:19:32;;;;;;;9.38;1.85;;;29.30;43.50;;;;;;5029209;28;20023;-80
2022/05/14 14:22:04;;;;;;;10.10;1.92;;;28.80;44.20;;;;;;5029214;28;20036;-81
2022/05/14 14:24:30;;;;;;;6.57;1.63;;;28.30;44.80;;;;;;5031490;28;20356;-81
2022/05/14 14:26:58;;;;;;;12.68;2.22;;;28.00;45.90;;;;;;5028250;28;20036;-81
2022/05/14 14:29:24;;;;;;;8.48;2.85;;;27.70;46.30;;;;;;5024201;28;20052;-80
2022/05/14 14:31:51;;;;;;;13.38;5.15;;;27.50;46.70;;;;;;5030496;28;20503;-80
2022/05/14 14:34:18;;;;;;;18.08;10.82;;;27.30;47.20;;;;;;5027735;28;20025;-80